Latest Weather Observations for Derby

IDW60801

Issued at 9:13 pm WST Monday 18 June 2018 (issued every 10 minutes, with the page automatically refreshed every 10 minutes)

About weather observations | Map of weather stations | Latest weather observations for WA | Other Formats
Station Details ID: 003032 Name: DERBY AERO Lat: -17.37 Lon: 123.66 Height: 6.2 m
Data from the previous 72 hours. | See also: Recent months at Derby
Date/Time
WST
Temp
°C
App
Temp
°C
Dew
Point
°C
Rel
Hum
%
Delta-T
°C
Wind Press
QNH
hPa
Press
MSL
hPa
Rain since
9am
mm
Dir  Spd
km/h
Gust
km/h
Spd
kts
Gust
kts
18/01:30pm 30.0 27.1 4.6 20 13.1 ENE 9 17 5 9 1013.5 1013.5 0.0
18/01:00pm 30.2 26.8 4.0 19 13.4 ENE 11 19 6 10 1013.8 1013.8 0.0
18/12:30pm 29.7 26.0 4.4 20 13.0 E 13 22 7 12 1014.3 1014.3 0.0
18/12:00pm 29.2 25.4 4.0 20 12.8 E 13 24 7 13 1014.9 1014.9 0.0
18/11:30am 28.8 24.7 4.3 21 12.5 E 15 22 8 12 1015.6 1015.6 0.0
18/11:00am 28.1 23.9 3.7 21 12.3 ESE 15 20 8 11 1016.1 1016.1 0.0
18/10:30am 27.2 22.0 3.7 22 11.7 E 20 28 11 15 1016.6 1016.6 0.0
18/10:00am 26.4 21.1 3.0 22 11.5 E 20 30 11 16 1016.7 1016.7 0.0
18/09:30am 25.5 19.8 2.9 23 11.0 ENE 22 30 12 16 1017.3 1017.3 0.0
18/09:00am 23.6 18.4 3.5 27 9.8 ENE 20 28 11 15 1017.3 1017.3 0.0
18/08:30am 22.4 16.7 3.0 28 9.3 E 22 30 12 16 1017.2 1017.2 0.0
18/08:00am 21.0 14.9 2.8 30 8.5 E 24 33 13 18 1017.0 1017.0 0.0
18/07:30am 19.2 12.9 1.7 31 7.9 E 24 33 13 18 1017.0 1017.0 0.0
18/07:00am 17.7 12.4 1.7 34 7.2 ESE 19 24 10 13 1017.1 1017.1 0.0
18/06:30am 16.4 11.3 0.9 35 6.8 ESE 17 20 9 11 1016.9 1016.9 0.0
18/06:00am 16.3 11.3 1.2 36 6.6 SE 17 22 9 12 1016.6 1016.6 0.0
18/05:30am 15.9 11.2 0.9 36 6.5 SE 15 19 8 10 1016.6 1016.6 0.0
18/05:00am 15.6 11.3 1.0 37 6.3 SE 13 15 7 8 1016.5 1016.5 0.0
18/04:30am 15.4 11.0 0.4 36 6.4 SE 13 17 7 9 1016.5 1016.5 0.0
18/04:00am 15.5 11.1 0.5 36 6.4 SSE 13 15 7 8 1016.2 1016.2 0.0
18/03:30am 14.9 11.0 1.1 39 6.0 SSE 11 13 6 7 1016.2 1016.2 0.0
18/03:00am 14.6 10.6 0.5 38 6.0 SSE 11 13 6 7 1016.3 1016.3 0.0
18/02:30am 15.1 11.1 0.2 36 6.3 SSE 11 13 6 7 1016.3 1016.3 0.0
18/02:00am 17.3 12.5 0.0 31 7.4 SE 15 17 8 9 1016.3 1016.3 0.0
18/01:30am 18.2 13.0 0.4 30 7.8 SE 17 20 9 11 1016.4 1016.4 0.0
18/01:00am 18.8 13.3 0.9 30 8.0 SE 19 24 10 13 1016.7 1016.7 0.0
18/12:30am 18.4 13.3 1.0 31 7.7 SE 17 20 9 11 1016.8 1016.8 0.0
18/12:00am 17.4 12.7 1.0 33 7.2 SE 15 19 8 10 1016.8 1016.8 0.0
 
Date/Time
WST
Temp
°C
App
Temp
°C
Dew
Point
°C
Rel
Hum
%
Delta-T
°C
Wind Press
QNH
hPa
Press
MSL
hPa
Rain since
9am
mm
Dir  Spd
km/h
Gust
km/h
Spd
kts
Gust
kts
17/11:30pm 19.3 14.4 1.8 31 8.0 SE 17 22 9 12 1016.8 1016.8 0.0
17/11:00pm 19.1 14.3 2.5 33 7.6 SE 17 19 9 10 1017.0 1017.0 0.0
17/10:30pm 19.2 14.8 2.6 33 7.7 SE 15 17 8 9 1017.2 1017.2 0.0
17/10:00pm 20.3 16.0 3.1 32 8.1 SE 15 19 8 10 1017.3 1017.3 0.0
17/09:30pm 20.7 16.4 3.4 32 8.2 SE 15 17 8 9 1017.3 1017.3 0.0
17/09:00pm 21.4 16.8 3.6 31 8.5 SE 17 19 9 10 1017.3 1017.3 0.0
17/08:30pm 21.8 17.6 3.9 31 8.7 ESE 15 17 8 9 1017.2 1017.2 0.0
17/08:00pm 23.4 18.9 4.4 29 9.4 SE 17 20 9 11 1017.1 1017.1 0.0
17/07:30pm 23.0 19.2 5.9 33 8.7 SE 15 19 8 10 1016.9 1016.9 0.0
17/07:00pm 23.7 20.1 6.9 34 8.7 SE 15 17 8 9 1016.7 1016.7 0.0
17/06:30pm 23.1 19.9 6.8 35 8.4 SE 13 15 7 8 1016.4 1016.4 0.0
17/06:00pm 24.4 21.6 7.1 33 9.0 SE 11 13 6 7 1016.3 1016.3 0.0
17/05:30pm 26.8 23.5 6.2 27 10.7 SE 13 17 7 9 1015.9 1015.9 0.0
17/05:00pm 28.5 25.2 6.6 25 11.6 SE 13 17 7 9 1015.5 1015.5 0.0
17/04:30pm 30.1 25.5 5.4 21 12.9 SE 19 26 10 14 1015.2 1015.2 0.0
17/04:00pm 30.8 26.3 6.0 21 13.2 ESE 19 22 10 12 1015.0 1015.0 0.0
17/03:30pm 31.3 26.4 4.9 19 13.8 SE 20 30 11 16 1014.9 1014.9 0.0
17/03:00pm 31.6 27.1 5.9 20 13.7 ESE 19 24 10 13 1015.0 1015.0 0.0
17/02:30pm 31.7 27.4 5.3 19 13.9 ESE 17 30 9 16 1015.0 1015.0 0.0
17/02:00pm 31.5 26.8 5.1 19 13.9 SE 19 26 10 14 1015.2 1015.2 0.0
17/01:30pm 31.5 27.2 5.1 19 13.9 E 17 24 9 13 1015.5 1015.5 0.0
17/01:00pm 31.2 26.8 4.9 19 13.7 SE 17 26 9 14 1015.7 1015.7 0.0
17/12:30pm 32.1 27.5 6.3 20 13.9 SE 20 28 11 15 1016.3 1016.3 0.0
17/12:00pm 30.7 26.5 5.9 21 13.1 E 17 24 9 13 1016.8 1016.8 0.0
17/11:30am 30.0 26.0 6.6 23 12.5 ESE 17 28 9 15 1017.3 1017.3 0.0
17/11:00am 29.3 25.0 7.2 25 11.9 E 19 28 10 15 1017.7 1017.7 0.0
17/10:30am 28.6 24.3 7.2 26 11.5 E 19 26 10 14 1018.2 1018.2 0.0
17/10:00am 27.6 23.3 6.9 27 10.9 E 19 24 10 13 1018.7 1018.7 0.0
17/09:30am 26.5 22.2 7.0 29 10.3 ESE 19 28 10 15 1019.0 1019.0 0.0
17/09:00am 25.3 21.0 7.0 31 9.6 E 19 26 10 14 1019.3 1019.3 0.0
17/08:30am 24.3 20.2 6.1 31 9.3 ESE 17 22 9 12 1019.3 1019.3 0.0
17/08:00am 22.9 18.3 5.8 33 8.6 ESE 19 24 10 13 1019.1 1019.1 0.0
17/07:30am 21.1 17.1 5.1 35 7.9 SE 15 20 8 11 1019.0 1019.0 0.0
17/07:00am 19.8 16.6 5.1 38 7.2 SE 11 13 6 7 1018.7 1018.7 0.0
17/06:30am 18.9 15.3 5.0 40 6.7 SE 13 15 7 8 1018.2 1018.2 0.0
17/06:00am 18.8 15.2 4.9 40 6.7 SE 13 15 7 8 1017.8 1017.8 0.0
17/05:30am 19.0 15.7 4.7 39 6.9 SSE 11 15 6 8 1017.5 1017.5 0.0
17/05:00am 20.4 17.1 4.8 36 7.6 SE 11 13 6 7 1017.1 1017.1 0.0
17/04:30am 21.5 17.1 5.0 34 8.1 SE 17 20 9 11 1017.0 1017.0 0.0
17/04:00am 21.7 17.4 5.2 34 8.2 SE 17 22 9 12 1016.7 1016.7 0.0
17/03:30am 22.1 17.5 5.5 34 8.3 ESE 19 28 10 15 1016.5 1016.5 0.0
17/03:00am 22.3 18.1 5.7 34 8.3 SE 17 22 9 12 1016.4 1016.4 0.0
17/02:30am 22.8 18.7 6.1 34 8.5 ESE 17 22 9 12 1016.4 1016.4 0.0
17/02:00am 23.2 18.8 6.5 34 8.5 ESE 19 22 10 12 1016.5 1016.5 0.0
17/01:30am 23.2 18.8 7.3 36 8.3 SE 20 28 11 15 1016.7 1016.7 0.0
17/01:00am 23.5 19.3 8.4 38 8.0 SE 20 24 11 13 1016.9 1016.9 0.0
17/12:30am 23.8 19.7 8.6 38 8.1 SE 20 26 11 14 1017.1 1017.1 0.0
17/12:00am 23.2 20.0 9.9 43 7.2 SE 17 20 9 11 1017.2 1017.2 0.0
 
Date/Time
WST
Temp
°C
App
Temp
°C
Dew
Point
°C
Rel
Hum
%
Delta-T
°C
Wind Press
QNH
hPa
Press
MSL
hPa
Rain since
9am
mm
Dir  Spd
km/h
Gust
km/h
Spd
kts
Gust
kts
16/11:30pm 23.2 20.5 10.3 44 7.1 SE 15 19 8 10 1017.3 1017.3 0.0
16/11:00pm 23.7 21.1 10.7 44 7.2 SE 15 19 8 10 1017.3 1017.3 0.0
16/10:30pm 24.2 21.2 10.8 43 7.5 SE 17 20 9 11 1017.4 1017.4 0.0
16/10:00pm 24.8 21.5 11.0 42 7.7 SE 19 22 10 12 1017.4 1017.4 0.0
16/09:30pm 25.0 22.0 11.9 44 7.5 SE 19 24 10 13 1017.3 1017.3 0.0
16/09:00pm 24.2 22.7 13.1 50 6.4 SE 13 15 7 8 1017.2 1017.2 0.0
16/08:30pm 24.8 23.5 13.7 50 6.5 SE 13 15 7 8 1017.2 1017.2 0.0
16/08:00pm 25.3 24.5 14.1 50 6.6 SE 11 15 6 8 1017.1 1017.1 0.0
16/07:30pm 26.8 25.9 14.9 48 7.2 SE 13 17 7 9 1016.8 1016.8 0.0
16/07:00pm 25.5 27.3 16.4 57 5.6 WSW 2 6 1 3 1016.5 1016.5 0.0
16/06:30pm 26.1 27.5 16.4 55 6.0 WSW 4 7 2 4 1016.3 1016.3 0.0
16/06:00pm 26.8 28.3 16.7 54 6.3 NW 4 9 2 5 1015.9 1015.9 0.0
16/05:30pm 27.2 27.9 16.2 51 6.8 NW 7 11 4 6 1015.7 1015.7 0.0
16/05:00pm 28.9 28.6 16.5 47 7.7 NW 13 17 7 9 1015.3 1015.3 0.0
16/04:30pm 30.8 30.3 16.0 40 9.2 NW 13 17 7 9 1015.1 1015.1 0.0
16/04:00pm 31.9 31.4 15.8 38 10.0 WNW 13 19 7 10 1014.8 1014.8 0.0
16/03:30pm 31.4 30.1 15.8 39 9.7 WNW 17 22 9 12 1014.7 1014.7 0.0
16/03:00pm 31.9 32.0 14.5 34 10.6 E 7 11 4 6 1014.8 1014.8 0.0
16/02:30pm 31.7 30.8 14.8 36 10.4 ESE 13 22 7 12 1014.9 1014.9 0.0
16/02:00pm 31.7 31.5 14.8 36 10.4 ENE 9 17 5 9 1015.0 1015.0 0.0
16/01:30pm 31.4 30.6 15.0 37 10.1 E 13 19 7 10 1015.2 1015.2 0.0
16/01:00pm 31.6 30.4 15.1 36 10.2 E 15 24 8 13 1015.5 1015.5 0.0
16/12:30pm 32.5 31.5 15.5 36 10.6 ENE 15 22 8 12 1016.0 1016.0 0.0
16/12:00pm 32.1 31.3 15.1 35 10.5 ENE 13 24 7 13 1016.5 1016.5 0.0
16/11:30am 31.4 29.6 15.4 38 9.9 NE 19 30 10 16 1017.0 1017.0 0.0
16/11:00am 31.7 29.7 15.6 37 10.0 ENE 20 30 11 16 1017.2 1017.2 0.0
16/10:30am 30.9 27.9 14.9 37 9.8 E 24 35 13 19 1017.6 1017.6 0.0
16/10:00am 30.0 26.7 14.1 37 9.6 ENE 24 33 13 18 1017.7 1017.7 0.0
16/09:30am 29.1 26.5 13.7 38 9.2 E 20 32 11 17 1017.8 1017.8 0.0
16/09:00am 28.1 24.5 13.2 39 8.8 E 24 33 13 18 1017.8 1017.8 0.0
16/08:30am 26.7 22.9 12.4 41 8.3 E 24 32 13 17 1017.7 1017.7 0.0
16/08:00am 25.2 21.2 11.7 43 7.7 E 24 32 13 17 1017.6 1017.6 0.0
16/07:30am 24.5 20.3 11.1 43 7.5 E 24 35 13 19 1017.3 1017.3 0.0
16/07:00am 23.8 19.1 10.5 43 7.3 ESE 26 33 14 18 1016.9 1016.9 0.0
16/06:30am 23.2 18.4 10.3 44 7.1 ESE 26 33 14 18 1016.6 1016.6 0.0
16/06:00am 23.3 18.0 10.0 43 7.3 ESE 28 37 15 20 1016.2 1016.2 0.0
16/05:30am 23.5 18.3 10.2 43 7.3 ESE 28 37 15 20 1015.7 1015.7 0.0
16/05:00am 23.6 18.4 10.3 43 7.3 ESE 28 35 15 19 1015.5 1015.5 0.0
16/04:30am 23.7 18.9 10.4 43 7.3 ESE 26 35 14 19 1015.3 1015.3 0.0
16/04:00am 23.0 19.7 10.8 46 6.7 SE 19 24 10 13 1015.0 1015.0 0.0
16/03:30am 21.7 19.0 10.5 49 6.1 SSE 15 17 8 9 1015.1 1015.1 0.0
16/03:00am 21.0 18.3 10.5 51 5.7 S 15 19 8 10 1015.1 1015.1 0.0
16/02:30am 20.4 18.0 9.9 51 5.6 S 13 15 7 8 1015.2 1015.2 0.0
16/02:00am 21.4 18.6 9.9 48 6.2 S 15 17 8 9 1015.3 1015.3 0.0
16/01:30am 21.7 19.3 10.2 48 6.3 S 13 17 7 9 1015.5 1015.5 0.0
16/01:00am 21.2 18.2 10.7 51 5.7 S 17 20 9 11 1015.9 1015.9 0.0
16/12:30am 20.2 18.4 10.9 55 5.1 SE 11 11 6 6 1015.9 1015.9 0.0
16/12:00am 20.2 18.9 11.4 57 4.8 SSE 9 11 5 6 1016.1 1016.1 0.0
 
Date/Time
WST
Temp
°C
App
Temp
°C
Dew
Point
°C
Rel
Hum
%
Delta-T
°C
Wind Press
QNH
hPa
Press
MSL
hPa
Rain since
9am
mm
Dir  Spd
km/h
Gust
km/h
Spd
kts
Gust
kts
15/11:30pm 20.8 19.0 12.0 57 4.9 SSE 13 13 7 7 1016.1 1016.1 0.0
15/11:00pm 19.8 19.0 13.0 65 3.8 SE 9 9 5 5 1016.2 1016.2 0.0
15/10:30pm 20.3 19.9 13.0 63 4.1 SE 7 7 4 4 1016.4 1016.4 0.0
15/10:00pm 20.1 21.0 12.8 63 4.1 CALM 0 6 0 3 1016.3 1016.3 0.0
15/09:30pm 20.2 20.4 13.2 64 4.0 S 4 7 2 4 1016.2 1016.2 0.0

Other Formats:

Comma delimited format used in spreadsheet applications
http://www.bom.gov.au/fwo/IDW60801/IDW60801.95205.axf

JavaScript Object Notation format (JSON) in row-major order
http://www.bom.gov.au/fwo/IDW60801/IDW60801.95205.json